sensor_id;sensor_type;location;lat;lon;timestamp;pressure;altitude;pressure_sealevel;temperature;humidity
62942;BME280;49042;47.318;19.874;2023-12-28T00:01:04;101390.44;;;4.99;100.00
62942;BME280;49042;47.318;19.874;2023-12-28T00:04:05;101391.22;;;4.72;100.00
62942;BME280;49042;47.318;19.874;2023-12-28T00:07:07;101401.09;;;4.78;100.00
62942;BME280;49042;47.318;19.874;2023-12-28T00:10:09;101389.53;;;4.73;100.00
62942;BME280;49042;47.318;19.874;2023-12-28T00:13:11;101390.25;;;4.70;100.00
62942;BME280;49042;47.318;19.874;2023-12-28T00:16:13;101390.09;;;4.80;100.00
62942;BME280;49042;47.318;19.874;2023-12-28T00:19:15;101393.69;;;4.70;100.00
62942;BME280;49042;47.318;19.874;2023-12-28T00:22:16;101392.97;;;4.85;100.00
62942;BME280;49042;47.318;19.874;2023-12-28T00:25:18;101392.84;;;4.58;100.00
62942;BME280;49042;47.318;19.874;2023-12-28T00:28:20;101387.25;;;4.77;100.00
62942;BME280;49042;47.318;19.874;2023-12-28T00:31:21;101391.47;;;4.63;100.00
62942;BME280;49042;47.318;19.874;2023-12-28T00:34:23;101402.69;;;4.76;100.00
62942;BME280;49042;47.318;19.874;2023-12-28T00:37:25;101407.22;;;4.92;100.00
62942;BME280;49042;47.318;19.874;2023-12-28T00:40:27;101408.12;;;4.92;100.00
62942;BME280;49042;47.318;19.874;2023-12-28T00:43:29;101400.34;;;5.05;100.00
62942;BME280;49042;47.318;19.874;2023-12-28T00:46:30;101404.50;;;5.02;100.00
62942;BME280;49042;47.318;19.874;2023-12-28T00:49:32;101404.84;;;4.95;100.00
62942;BME280;49042;47.318;19.874;2023-12-28T00:52:34;101399.22;;;5.27;100.00
62942;BME280;49042;47.318;19.874;2023-12-28T00:55:35;101401.78;;;5.52;100.00
62942;BME280;49042;47.318;19.874;2023-12-28T00:58:40;101399.31;;;5.54;100.00
62942;BME280;49042;47.318;19.874;2023-12-28T01:01:42;101408.41;;;5.74;100.00
62942;BME280;49042;47.318;19.874;2023-12-28T01:04:44;101408.53;;;5.89;100.00
62942;BME280;49042;47.318;19.874;2023-12-28T01:07:46;101398.38;;;5.79;100.00
62942;BME280;49042;47.318;19.874;2023-12-28T01:10:47;101405.44;;;5.42;100.00
62942;BME280;49042;47.318;19.874;2023-12-28T01:13:51;101399.22;;;5.66;100.00
62942;BME280;49042;47.318;19.874;2023-12-28T01:16:53;101397.62;;;5.54;100.00
62942;BME280;49042;47.318;19.874;2023-12-28T01:19:54;101387.94;;;5.52;100.00
62942;BME280;49042;47.318;19.874;2023-12-28T01:22:56;101389.97;;;5.30;100.00
62942;BME280;49042;47.318;19.874;2023-12-28T01:25:59;101400.66;;;5.35;100.00
62942;BME280;49042;47.318;19.874;2023-12-28T01:29:01;101398.03;;;5.21;100.00
62942;BME280;49042;47.318;19.874;2023-12-28T01:32:05;101400.03;;;5.25;100.00
62942;BME280;49042;47.318;19.874;2023-12-28T01:35:07;101395.63;;;5.24;100.00
62942;BME280;49042;47.318;19.874;2023-12-28T01:38:09;101392.22;;;5.12;100.00
62942;BME280;49042;47.318;19.874;2023-12-28T01:41:11;101402.63;;;4.88;100.00
62942;BME280;49042;47.318;19.874;2023-12-28T01:44:14;101409.50;;;4.87;100.00
62942;BME280;49042;47.318;19.874;2023-12-28T01:47:15;101395.25;;;5.06;100.00
62942;BME280;49042;47.318;19.874;2023-12-28T01:50:18;101397.69;;;4.91;100.00
62942;BME280;49042;47.318;19.874;2023-12-28T01:53:20;101398.12;;;4.97;100.00
62942;BME280;49042;47.318;19.874;2023-12-28T01:56:22;101398.44;;;4.64;100.00
62942;BME280;49042;47.318;19.874;2023-12-28T01:59:25;101394.81;;;4.74;100.00
62942;BME280;49042;47.318;19.874;2023-12-28T02:02:27;101390.03;;;4.55;100.00
62942;BME280;49042;47.318;19.874;2023-12-28T02:05:29;101383.47;;;4.72;100.00
62942;BME280;49042;47.318;19.874;2023-12-28T02:08:31;101382.56;;;4.71;100.00
62942;BME280;49042;47.318;19.874;2023-12-28T02:11:34;101380.69;;;4.69;100.00
62942;BME280;49042;47.318;19.874;2023-12-28T02:14:35;101372.16;;;4.70;100.00
62942;BME280;49042;47.318;19.874;2023-12-28T02:17:43;101371.59;;;4.62;100.00
62942;BME280;49042;47.318;19.874;2023-12-28T02:20:49;101366.00;;;4.56;100.00
62942;BME280;49042;47.318;19.874;2023-12-28T02:23:51;101362.16;;;4.63;100.00
62942;BME280;49042;47.318;19.874;2023-12-28T02:26:53;101353.75;;;4.53;100.00
62942;BME280;49042;47.318;19.874;2023-12-28T02:29:55;101356.31;;;4.65;100.00
62942;BME280;49042;47.318;19.874;2023-12-28T02:36:16;101356.03;;;4.24;100.00
62942;BME280;49042;47.318;19.874;2023-12-28T02:39:20;101351.56;;;4.34;100.00
62942;BME280;49042;47.318;19.874;2023-12-28T02:42:23;101348.41;;;4.26;100.00
62942;BME280;49042;47.318;19.874;2023-12-28T02:45:25;101340.44;;;4.11;100.00
62942;BME280;49042;47.318;19.874;2023-12-28T02:48:28;101338.22;;;4.03;100.00
62942;BME280;49042;47.318;19.874;2023-12-28T02:51:30;101328.56;;;3.77;100.00
62942;BME280;49042;47.318;19.874;2023-12-28T02:54:32;101334.41;;;3.74;100.00
62942;BME280;49042;47.318;19.874;2023-12-28T02:57:33;101331.94;;;3.63;100.00
62942;BME280;49042;47.318;19.874;2023-12-28T03:00:38;101325.22;;;3.78;100.00
62942;BME280;49042;47.318;19.874;2023-12-28T03:03:40;101313.09;;;3.77;100.00
62942;BME280;49042;47.318;19.874;2023-12-28T03:06:46;101318.59;;;3.81;100.00
62942;BME280;49042;47.318;19.874;2023-12-28T03:09:48;101318.69;;;4.07;100.00
62942;BME280;49042;47.318;19.874;2023-12-28T03:12:49;101316.56;;;4.01;100.00
62942;BME280;49042;47.318;19.874;2023-12-28T03:15:51;101319.91;;;4.00;100.00
62942;BME280;49042;47.318;19.874;2023-12-28T03:18:53;101311.53;;;4.03;100.00
62942;BME280;49042;47.318;19.874;2023-12-28T03:21:55;101317.00;;;4.07;100.00
62942;BME280;49042;47.318;19.874;2023-12-28T03:24:56;101320.47;;;4.20;100.00
62942;BME280;49042;47.318;19.874;2023-12-28T03:27:58;101310.28;;;3.98;100.00
62942;BME280;49042;47.318;19.874;2023-12-28T03:31:03;101307.09;;;4.14;100.00
62942;BME280;49042;47.318;19.874;2023-12-28T03:34:06;101302.53;;;4.10;100.00
62942;BME280;49042;47.318;19.874;2023-12-28T03:37:08;101297.13;;;4.18;100.00
62942;BME280;49042;47.318;19.874;2023-12-28T03:40:11;101300.47;;;4.17;100.00
62942;BME280;49042;47.318;19.874;2023-12-28T03:43:13;101300.03;;;4.11;100.00
62942;BME280;49042;47.318;19.874;2023-12-28T03:46:15;101292.75;;;4.05;100.00
62942;BME280;49042;47.318;19.874;2023-12-28T03:49:17;101288.38;;;3.92;100.00
62942;BME280;49042;47.318;19.874;2023-12-28T03:52:19;101297.81;;;4.04;100.00
62942;BME280;49042;47.318;19.874;2023-12-28T03:55:21;101286.56;;;4.03;100.00
62942;BME280;49042;47.318;19.874;2023-12-28T03:58:23;101296.69;;;4.00;100.00
62942;BME280;49042;47.318;19.874;2023-12-28T04:01:25;101292.75;;;4.05;100.00
62942;BME280;49042;47.318;19.874;2023-12-28T04:04:26;101289.06;;;3.90;100.00
62942;BME280;49042;47.318;19.874;2023-12-28T04:07:28;101290.28;;;4.07;100.00
62942;BME280;49042;47.318;19.874;2023-12-28T04:10:31;101280.22;;;3.62;100.00
62942;BME280;49042;47.318;19.874;2023-12-28T04:13:34;101277.41;;;3.59;100.00
62942;BME280;49042;47.318;19.874;2023-12-28T04:16:36;101273.38;;;3.62;100.00
62942;BME280;49042;47.318;19.874;2023-12-28T04:19:38;101274.16;;;3.49;100.00
62942;BME280;49042;47.318;19.874;2023-12-28T04:22:40;101280.13;;;3.60;100.00
62942;BME280;49042;47.318;19.874;2023-12-28T04:25:42;101278.97;;;3.69;100.00
62942;BME280;49042;47.318;19.874;2023-12-28T04:28:44;101274.37;;;3.64;100.00
62942;BME280;49042;47.318;19.874;2023-12-28T04:31:45;101276.41;;;3.57;100.00
62942;BME280;49042;47.318;19.874;2023-12-28T04:34:47;101276.53;;;3.46;100.00
62942;BME280;49042;47.318;19.874;2023-12-28T04:37:49;101286.81;;;3.34;100.00
62942;BME280;49042;47.318;19.874;2023-12-28T04:40:51;101271.91;;;3.30;100.00
62942;BME280;49042;47.318;19.874;2023-12-28T04:43:54;101278.97;;;3.45;100.00
62942;BME280;49042;47.318;19.874;2023-12-28T04:46:55;101281.31;;;3.29;100.00
62942;BME280;49042;47.318;19.874;2023-12-28T04:49:57;101287.94;;;3.50;100.00
62942;BME280;49042;47.318;19.874;2023-12-28T04:52:59;101282.31;;;3.19;100.00
62942;BME280;49042;47.318;19.874;2023-12-28T04:56:00;101274.34;;;3.16;100.00
62942;BME280;49042;47.318;19.874;2023-12-28T04:59:02;101269.38;;;2.95;100.00
62942;BME280;49042;47.318;19.874;2023-12-28T05:02:04;101264.44;;;2.98;100.00
62942;BME280;49042;47.318;19.874;2023-12-28T05:05:06;101264.50;;;3.10;100.00
62942;BME280;49042;47.318;19.874;2023-12-28T05:08:08;101263.69;;;2.99;100.00
62942;BME280;49042;47.318;19.874;2023-12-28T05:11:09;101256.94;;;2.89;100.00
62942;BME280;49042;47.318;19.874;2023-12-28T05:14:11;101250.22;;;2.92;100.00
62942;BME280;49042;47.318;19.874;2023-12-28T05:17:13;101259.81;;;2.82;100.00
62942;BME280;49042;47.318;19.874;2023-12-28T05:20:15;101255.53;;;2.83;100.00
62942;BME280;49042;47.318;19.874;2023-12-28T05:23:16;101260.31;;;2.66;100.00
62942;BME280;49042;47.318;19.874;2023-12-28T05:26:18;101256.66;;;2.74;100.00
62942;BME280;49042;47.318;19.874;2023-12-28T05:29:20;101264.84;;;2.81;100.00
62942;BME280;49042;47.318;19.874;2023-12-28T05:32:21;101256.84;;;3.00;100.00
62942;BME280;49042;47.318;19.874;2023-12-28T05:35:23;101263.84;;;2.78;100.00
62942;BME280;49042;47.318;19.874;2023-12-28T05:38:25;101258.78;;;2.80;100.00
62942;BME280;49042;47.318;19.874;2023-12-28T05:41:27;101252.88;;;2.59;100.00
62942;BME280;49042;47.318;19.874;2023-12-28T05:44:29;101265.28;;;2.75;100.00
62942;BME280;49042;47.318;19.874;2023-12-28T05:47:33;101264.88;;;2.58;100.00
62942;BME280;49042;47.318;19.874;2023-12-28T05:50:35;101266.19;;;2.53;100.00
62942;BME280;49042;47.318;19.874;2023-12-28T05:53:36;101262.16;;;2.79;100.00
62942;BME280;49042;47.318;19.874;2023-12-28T05:56:38;101268.44;;;2.83;100.00
62942;BME280;49042;47.318;19.874;2023-12-28T05:59:40;101262.62;;;2.51;100.00
62942;BME280;49042;47.318;19.874;2023-12-28T06:02:41;101265.44;;;2.54;100.00
62942;BME280;49042;47.318;19.874;2023-12-28T06:05:43;101264.84;;;2.46;100.00
62942;BME280;49042;47.318;19.874;2023-12-28T06:08:45;101261.34;;;2.45;100.00
62942;BME280;49042;47.318;19.874;2023-12-28T06:11:46;101253.31;;;2.53;100.00
62942;BME280;49042;47.318;19.874;2023-12-28T06:14:48;101253.63;;;2.45;100.00
62942;BME280;49042;47.318;19.874;2023-12-28T06:17:50;101257.00;;;2.22;100.00
62942;BME280;49042;47.318;19.874;2023-12-28T06:20:52;101257.41;;;2.39;100.00
62942;BME280;49042;47.318;19.874;2023-12-28T06:23:53;101261.94;;;2.31;100.00
62942;BME280;49042;47.318;19.874;2023-12-28T06:26:55;101256.81;;;2.31;100.00
62942;BME280;49042;47.318;19.874;2023-12-28T06:29:58;101261.06;;;2.30;100.00
62942;BME280;49042;47.318;19.874;2023-12-28T06:32:59;101261.34;;;2.23;100.00
62942;BME280;49042;47.318;19.874;2023-12-28T06:36:05;101273.22;;;2.43;100.00
62942;BME280;49042;47.318;19.874;2023-12-28T06:39:07;101266.03;;;2.39;100.00
62942;BME280;49042;47.318;19.874;2023-12-28T06:42:09;101287.66;;;2.76;100.00
62942;BME280;49042;47.318;19.874;2023-12-28T06:45:11;101277.50;;;2.55;100.00
62942;BME280;49042;47.318;19.874;2023-12-28T06:48:13;101276.63;;;2.54;100.00
62942;BME280;49042;47.318;19.874;2023-12-28T06:51:18;101285.97;;;2.64;100.00
62942;BME280;49042;47.318;19.874;2023-12-28T06:54:21;101283.66;;;2.80;100.00
62942;BME280;49042;47.318;19.874;2023-12-28T06:57:23;101284.41;;;3.01;100.00
62942;BME280;49042;47.318;19.874;2023-12-28T07:00:24;101286.38;;;3.40;100.00
62942;BME280;49042;47.318;19.874;2023-12-28T07:03:26;101293.31;;;3.89;100.00
62942;BME280;49042;47.318;19.874;2023-12-28T07:06:32;101292.72;;;4.30;100.00
62942;BME280;49042;47.318;19.874;2023-12-28T07:09:33;101271.50;;;4.99;100.00
62942;BME280;49042;47.318;19.874;2023-12-28T07:12:35;101266.63;;;5.56;100.00
62942;BME280;49042;47.318;19.874;2023-12-28T07:15:37;101254.19;;;5.64;100.00
62942;BME280;49042;47.318;19.874;2023-12-28T07:18:39;101254.13;;;6.19;100.00
62942;BME280;49042;47.318;19.874;2023-12-28T07:21:41;101251.72;;;7.25;100.00
62942;BME280;49042;47.318;19.874;2023-12-28T07:24:43;101242.81;;;7.67;100.00
62942;BME280;49042;47.318;19.874;2023-12-28T07:27:45;101244.94;;;6.82;100.00
62942;BME280;49042;47.318;19.874;2023-12-28T07:30:47;101246.22;;;6.60;100.00
62942;BME280;49042;47.318;19.874;2023-12-28T07:33:48;101243.84;;;7.39;100.00
62942;BME280;49042;47.318;19.874;2023-12-28T07:36:50;101239.56;;;7.39;100.00
62942;BME280;49042;47.318;19.874;2023-12-28T07:39:52;101234.91;;;7.34;100.00
62942;BME280;49042;47.318;19.874;2023-12-28T07:42:54;101231.03;;;7.42;100.00
62942;BME280;49042;47.318;19.874;2023-12-28T07:45:56;101236.31;;;7.44;100.00
62942;BME280;49042;47.318;19.874;2023-12-28T07:48:58;101240.16;;;7.66;100.00
62942;BME280;49042;47.318;19.874;2023-12-28T07:52:00;101252.50;;;6.63;100.00
62942;BME280;49042;47.318;19.874;2023-12-28T07:55:02;101240.63;;;6.82;100.00
62942;BME280;49042;47.318;19.874;2023-12-28T07:58:04;101245.75;;;6.23;100.00
62942;BME280;49042;47.318;19.874;2023-12-28T08:01:10;101252.69;;;6.67;100.00
62942;BME280;49042;47.318;19.874;2023-12-28T08:04:12;101252.56;;;6.50;100.00
62942;BME280;49042;47.318;19.874;2023-12-28T08:07:14;101260.31;;;6.94;100.00
62942;BME280;49042;47.318;19.874;2023-12-28T08:10:16;101254.37;;;8.05;100.00
62942;BME280;49042;47.318;19.874;2023-12-28T08:13:18;101243.22;;;9.26;100.00
62942;BME280;49042;47.318;19.874;2023-12-28T08:16:22;101248.25;;;9.96;100.00
62942;BME280;49042;47.318;19.874;2023-12-28T08:19:24;101242.00;;;10.31;100.00
62942;BME280;49042;47.318;19.874;2023-12-28T08:22:26;101233.47;;;13.34;82.21
62942;BME280;49042;47.318;19.874;2023-12-28T08:25:29;101240.84;;;14.03;63.30
62942;BME280;49042;47.318;19.874;2023-12-28T08:28:31;101251.94;;;16.00;55.14
62942;BME280;49042;47.318;19.874;2023-12-28T08:31:32;101251.53;;;18.43;43.76
62942;BME280;49042;47.318;19.874;2023-12-28T08:34:34;101255.53;;;20.16;39.32
62942;BME280;49042;47.318;19.874;2023-12-28T08:37:37;101251.72;;;17.29;41.54
62942;BME280;49042;47.318;19.874;2023-12-28T08:40:38;101250.97;;;14.52;52.48
62942;BME280;49042;47.318;19.874;2023-12-28T08:43:40;101248.41;;;16.00;50.26
62942;BME280;49042;47.318;19.874;2023-12-28T08:46:41;101239.75;;;19.00;41.44
62942;BME280;49042;47.318;19.874;2023-12-28T08:49:43;101250.87;;;19.79;37.74
62942;BME280;49042;47.318;19.874;2023-12-28T08:52:45;101256.16;;;22.64;32.88
62942;BME280;49042;47.318;19.874;2023-12-28T08:55:47;101250.97;;;17.99;39.95
62942;BME280;49042;47.318;19.874;2023-12-28T08:58:49;101258.97;;;23.60;31.25
62942;BME280;49042;47.318;19.874;2023-12-28T09:01:53;101257.25;;;24.29;29.54
62942;BME280;49042;47.318;19.874;2023-12-28T09:04:55;101253.56;;;24.98;27.58
62942;BME280;49042;47.318;19.874;2023-12-28T09:07:57;101247.00;;;27.29;25.19
62942;BME280;49042;47.318;19.874;2023-12-28T09:10:59;101243.69;;;27.20;24.80
62942;BME280;49042;47.318;19.874;2023-12-28T09:14:01;101251.13;;;26.70;24.95
62942;BME280;49042;47.318;19.874;2023-12-28T09:17:03;101247.84;;;25.71;25.27
62942;BME280;49042;47.318;19.874;2023-12-28T09:20:05;101256.78;;;27.31;24.13
62942;BME280;49042;47.318;19.874;2023-12-28T09:23:08;101265.44;;;28.37;23.19
62942;BME280;49042;47.318;19.874;2023-12-28T09:26:11;101254.69;;;27.75;23.43
62942;BME280;49042;47.318;19.874;2023-12-28T09:29:13;101244.78;;;24.93;26.86
62942;BME280;49042;47.318;19.874;2023-12-28T09:32:14;101238.59;;;23.51;29.04
62942;BME280;49042;47.318;19.874;2023-12-28T09:35:18;101230.06;;;23.15;29.17
62942;BME280;49042;47.318;19.874;2023-12-28T09:38:19;101221.50;;;25.98;26.47
62942;BME280;49042;47.318;19.874;2023-12-28T09:41:25;101228.69;;;26.76;25.62
62942;BME280;49042;47.318;19.874;2023-12-28T09:44:28;101221.03;;;25.79;25.87
62942;BME280;49042;47.318;19.874;2023-12-28T09:47:32;101212.53;;;25.07;27.04
62942;BME280;49042;47.318;19.874;2023-12-28T09:50:35;101206.87;;;26.57;25.27
62942;BME280;49042;47.318;19.874;2023-12-28T09:53:37;101194.66;;;25.60;26.62
62942;BME280;49042;47.318;19.874;2023-12-28T09:56:40;101195.38;;;24.68;27.47
62942;BME280;49042;47.318;19.874;2023-12-28T09:59:42;101185.75;;;23.14;29.83
62942;BME280;49042;47.318;19.874;2023-12-28T10:02:46;101173.69;;;23.65;28.38
62942;BME280;49042;47.318;19.874;2023-12-28T10:05:47;101165.25;;;24.00;28.83
62942;BME280;49042;47.318;19.874;2023-12-28T10:08:49;101159.03;;;25.61;27.76
62942;BME280;49042;47.318;19.874;2023-12-28T10:11:53;101156.13;;;23.48;30.25
62942;BME280;49042;47.318;19.874;2023-12-28T10:14:55;101158.28;;;25.07;27.87
62942;BME280;49042;47.318;19.874;2023-12-28T10:17:56;101146.66;;;23.20;29.74
62942;BME280;49042;47.318;19.874;2023-12-28T10:20:58;101143.19;;;25.06;28.47
62942;BME280;49042;47.318;19.874;2023-12-28T10:24:01;101145.75;;;25.58;26.80
62942;BME280;49042;47.318;19.874;2023-12-28T10:27:03;101135.53;;;25.79;26.86
62942;BME280;49042;47.318;19.874;2023-12-28T10:30:06;101120.00;;;25.97;26.87
62942;BME280;49042;47.318;19.874;2023-12-28T10:33:08;101116.88;;;21.35;33.25
62942;BME280;49042;47.318;19.874;2023-12-28T10:36:12;101109.78;;;18.40;38.09
62942;BME280;49042;47.318;19.874;2023-12-28T10:39:19;101110.59;;;16.40;46.37
62942;BME280;49042;47.318;19.874;2023-12-28T10:43:02;101105.88;;;15.74;50.87
62942;BME280;49042;47.318;19.874;2023-12-28T10:46:06;101107.81;;;14.67;56.69
62942;BME280;49042;47.318;19.874;2023-12-28T10:49:16;101093.28;;;14.10;71.80
62942;BME280;49042;47.318;19.874;2023-12-28T10:52:20;101096.91;;;13.81;82.00
62942;BME280;49042;47.318;19.874;2023-12-28T10:58:34;101089.31;;;13.32;87.02
62942;BME280;49042;47.318;19.874;2023-12-28T11:01:42;101085.41;;;13.17;85.55
62942;BME280;49042;47.318;19.874;2023-12-28T11:04:49;101081.28;;;12.97;91.42
62942;BME280;49042;47.318;19.874;2023-12-28T11:07:52;101078.00;;;12.22;96.80
62942;BME280;49042;47.318;19.874;2023-12-28T11:10:58;101071.41;;;12.34;99.06
62942;BME280;49042;47.318;19.874;2023-12-28T11:14:03;101067.03;;;12.33;98.42
62942;BME280;49042;47.318;19.874;2023-12-28T11:17:06;101066.25;;;12.63;97.56
62942;BME280;49042;47.318;19.874;2023-12-28T11:20:08;101059.84;;;12.27;99.85
62942;BME280;49042;47.318;19.874;2023-12-28T11:23:12;101054.47;;;11.97;100.00
62942;BME280;49042;47.318;19.874;2023-12-28T11:26:21;101052.62;;;12.46;100.00
62942;BME280;49042;47.318;19.874;2023-12-28T11:29:24;101047.47;;;12.47;100.00
62942;BME280;49042;47.318;19.874;2023-12-28T11:32:26;101033.41;;;12.73;95.00
62942;BME280;49042;47.318;19.874;2023-12-28T11:35:39;101031.94;;;12.81;97.65
62942;BME280;49042;47.318;19.874;2023-12-28T11:38:41;101035.12;;;12.72;96.11
62942;BME280;49042;47.318;19.874;2023-12-28T11:41:43;101018.88;;;12.83;91.79
62942;BME280;49042;47.318;19.874;2023-12-28T11:44:45;101029.13;;;13.04;90.07
62942;BME280;49042;47.318;19.874;2023-12-28T11:48:01;101027.66;;;13.13;91.06
62942;BME280;49042;47.318;19.874;2023-12-28T11:51:03;101019.06;;;12.32;93.56
62942;BME280;49042;47.318;19.874;2023-12-28T11:54:06;101007.34;;;13.05;92.10
62942;BME280;49042;47.318;19.874;2023-12-28T11:57:08;101016.09;;;13.06;93.15
62942;BME280;49042;47.318;19.874;2023-12-28T12:00:10;101010.56;;;13.26;92.29
62942;BME280;49042;47.318;19.874;2023-12-28T12:03:12;101010.94;;;13.40;87.27
62942;BME280;49042;47.318;19.874;2023-12-28T12:06:14;101008.97;;;13.02;89.80
62942;BME280;49042;47.318;19.874;2023-12-28T12:09:16;100998.56;;;12.46;96.07
62942;BME280;49042;47.318;19.874;2023-12-28T12:12:21;100999.97;;;13.21;91.81
62942;BME280;49042;47.318;19.874;2023-12-28T12:15:23;100987.56;;;13.15;92.85
62942;BME280;49042;47.318;19.874;2023-12-28T12:18:25;100988.59;;;12.34;97.71
62942;BME280;49042;47.318;19.874;2023-12-28T12:21:28;100990.81;;;12.77;97.29
62942;BME280;49042;47.318;19.874;2023-12-28T12:24:31;100976.06;;;12.81;93.93
62942;BME280;49042;47.318;19.874;2023-12-28T12:27:35;100955.63;;;13.29;92.87
62942;BME280;49042;47.318;19.874;2023-12-28T12:30:38;100954.31;;;13.13;100.00
62942;BME280;49042;47.318;19.874;2023-12-28T12:33:40;100952.81;;;12.61;98.13
62942;BME280;49042;47.318;19.874;2023-12-28T12:36:42;100947.16;;;13.38;94.47
62942;BME280;49042;47.318;19.874;2023-12-28T12:39:44;100950.22;;;13.55;91.75
62942;BME280;49042;47.318;19.874;2023-12-28T12:42:56;100955.63;;;13.60;89.41
62942;BME280;49042;47.318;19.874;2023-12-28T12:45:58;100965.06;;;13.55;88.67
62942;BME280;49042;47.318;19.874;2023-12-28T12:49:00;100965.50;;;13.39;91.80
62942;BME280;49042;47.318;19.874;2023-12-28T12:52:07;100960.78;;;12.95;97.55
62942;BME280;49042;47.318;19.874;2023-12-28T12:55:12;100958.63;;;13.11;95.10
62942;BME280;49042;47.318;19.874;2023-12-28T12:58:14;100948.69;;;13.62;92.57
62942;BME280;49042;47.318;19.874;2023-12-28T13:01:18;100945.91;;;12.94;96.05
62942;BME280;49042;47.318;19.874;2023-12-28T13:04:20;100942.06;;;13.44;93.79
62942;BME280;49042;47.318;19.874;2023-12-28T13:07:23;100944.72;;;13.13;95.43
62942;BME280;49042;47.318;19.874;2023-12-28T13:10:25;100936.72;;;13.09;99.07
62942;BME280;49042;47.318;19.874;2023-12-28T13:13:27;100933.91;;;13.33;96.10
62942;BME280;49042;47.318;19.874;2023-12-28T13:16:29;100927.91;;;13.05;100.00
62942;BME280;49042;47.318;19.874;2023-12-28T13:19:30;100941.91;;;12.76;100.00
62942;BME280;49042;47.318;19.874;2023-12-28T13:22:32;100954.91;;;12.73;100.00
62942;BME280;49042;47.318;19.874;2023-12-28T13:25:35;100946.00;;;12.97;100.00
62942;BME280;49042;47.318;19.874;2023-12-28T13:28:37;100951.47;;;13.05;100.00
62942;BME280;49042;47.318;19.874;2023-12-28T13:31:39;100938.16;;;13.28;99.02
62942;BME280;49042;47.318;19.874;2023-12-28T13:34:41;100938.13;;;12.95;100.00
62942;BME280;49042;47.318;19.874;2023-12-28T13:37:43;100940.06;;;13.03;100.00
62942;BME280;49042;47.318;19.874;2023-12-28T13:40:44;100945.59;;;12.83;100.00
62942;BME280;49042;47.318;19.874;2023-12-28T13:43:46;100936.31;;;12.93;100.00
62942;BME280;49042;47.318;19.874;2023-12-28T13:46:48;100944.53;;;12.19;100.00
62942;BME280;49042;47.318;19.874;2023-12-28T13:49:50;100942.44;;;11.82;100.00
62942;BME280;49042;47.318;19.874;2023-12-28T13:52:52;100941.38;;;11.77;100.00
62942;BME280;49042;47.318;19.874;2023-12-28T13:55:54;100943.66;;;11.66;100.00
62942;BME280;49042;47.318;19.874;2023-12-28T13:58:55;100934.38;;;11.76;100.00
62942;BME280;49042;47.318;19.874;2023-12-28T14:01:57;100938.53;;;11.69;100.00
62942;BME280;49042;47.318;19.874;2023-12-28T14:05:00;100941.59;;;11.32;100.00
62942;BME280;49042;47.318;19.874;2023-12-28T14:08:03;100942.22;;;11.25;100.00
62942;BME280;49042;47.318;19.874;2023-12-28T14:11:05;100958.38;;;11.14;100.00
62942;BME280;49042;47.318;19.874;2023-12-28T14:14:09;100960.75;;;11.08;100.00
62942;BME280;49042;47.318;19.874;2023-12-28T14:17:10;100977.72;;;10.97;100.00
62942;BME280;49042;47.318;19.874;2023-12-28T14:20:12;100971.25;;;11.10;100.00
62942;BME280;49042;47.318;19.874;2023-12-28T14:23:14;100967.06;;;10.90;100.00
62942;BME280;49042;47.318;19.874;2023-12-28T14:26:16;100972.16;;;10.87;100.00
62942;BME280;49042;47.318;19.874;2023-12-28T14:29:18;100979.03;;;10.85;100.00
62942;BME280;49042;47.318;19.874;2023-12-28T14:32:20;100981.44;;;10.57;100.00
62942;BME280;49042;47.318;19.874;2023-12-28T14:35:23;100994.09;;;10.26;100.00
62942;BME280;49042;47.318;19.874;2023-12-28T14:38:26;100988.22;;;10.11;100.00
62942;BME280;49042;47.318;19.874;2023-12-28T14:41:28;100974.72;;;10.20;100.00
62942;BME280;49042;47.318;19.874;2023-12-28T14:44:30;100965.22;;;10.00;100.00
62942;BME280;49042;47.318;19.874;2023-12-28T14:47:31;100963.13;;;9.91;100.00
62942;BME280;49042;47.318;19.874;2023-12-28T14:50:33;100964.84;;;9.91;100.00
62942;BME280;49042;47.318;19.874;2023-12-28T14:53:37;100968.03;;;9.43;100.00
62942;BME280;49042;47.318;19.874;2023-12-28T14:56:38;100964.91;;;9.31;100.00
62942;BME280;49042;47.318;19.874;2023-12-28T14:59:51;100960.91;;;8.99;100.00
62942;BME280;49042;47.318;19.874;2023-12-28T15:02:53;100977.53;;;8.83;100.00
62942;BME280;49042;47.318;19.874;2023-12-28T15:05:55;100978.25;;;8.81;100.00
62942;BME280;49042;47.318;19.874;2023-12-28T15:08:57;100992.25;;;8.64;100.00
62942;BME280;49042;47.318;19.874;2023-12-28T15:11:59;100996.00;;;8.34;100.00
62942;BME280;49042;47.318;19.874;2023-12-28T15:15:01;100993.53;;;8.19;100.00
62942;BME280;49042;47.318;19.874;2023-12-28T15:18:03;100994.41;;;8.20;100.00
62942;BME280;49042;47.318;19.874;2023-12-28T15:21:06;101011.34;;;8.11;100.00
62942;BME280;49042;47.318;19.874;2023-12-28T15:24:08;101010.00;;;7.85;100.00
62942;BME280;49042;47.318;19.874;2023-12-28T15:27:10;101006.13;;;7.76;100.00
62942;BME280;49042;47.318;19.874;2023-12-28T15:30:13;101020.06;;;7.78;100.00
62942;BME280;49042;47.318;19.874;2023-12-28T15:33:15;101025.28;;;7.45;100.00
62942;BME280;49042;47.318;19.874;2023-12-28T15:36:17;101013.69;;;7.38;100.00
62942;BME280;49042;47.318;19.874;2023-12-28T15:39:19;101022.44;;;7.40;100.00
62942;BME280;49042;47.318;19.874;2023-12-28T15:42:20;101012.06;;;7.40;100.00
62942;BME280;49042;47.318;19.874;2023-12-28T15:45:22;101005.81;;;7.36;100.00